createdAt,value
2018-08-12T00:09:37.632Z,100872.39
2018-08-12T00:19:40.730Z,100872.98
2018-08-12T00:29:43.988Z,100873.96
2018-08-12T00:39:47.317Z,100869.21
2018-08-12T00:49:50.393Z,100862.42
2018-08-12T00:59:54.478Z,100861.08
2018-08-12T01:09:57.718Z,100861.70
2018-08-12T01:20:00.856Z,100859.75
2018-08-12T01:30:05.086Z,100856.37
2018-08-12T01:40:10.499Z,100862.66
2018-08-12T01:50:16.062Z,100853.55
2018-08-12T02:00:20.397Z,100854.28
2018-08-12T02:10:23.458Z,100852.45
2018-08-12T02:20:27.118Z,100850.40
2018-08-12T02:30:30.262Z,100859.00
2018-08-12T02:40:33.309Z,100850.40
2018-08-12T02:50:37.127Z,100848.56
2018-08-12T03:00:40.921Z,100837.88
2018-08-12T03:10:43.942Z,100828.65
2018-08-12T03:20:47.967Z,100812.90
2018-08-12T03:30:51.765Z,100807.44
2018-08-12T03:40:55.194Z,100792.99
2018-08-12T03:50:59.265Z,100792.01
2018-08-12T04:01:02.342Z,100798.80
2018-08-12T04:11:06.381Z,100796.37
2018-08-12T04:21:09.705Z,100788.12
2018-08-12T04:31:12.867Z,100789.22
2018-08-12T04:41:15.897Z,100785.94
2018-08-12T04:51:19.076Z,100785.34
2018-08-12T05:01:22.190Z,100780.23
2018-08-12T05:11:25.309Z,100777.80
2018-08-12T05:21:28.446Z,100779.14
2018-08-12T05:31:31.745Z,100763.86
2018-08-12T05:41:34.778Z,100751.84
2018-08-12T05:51:37.857Z,100748.83
2018-08-12T06:01:41.347Z,100740.19
2018-08-12T06:11:44.670Z,100732.92
2018-08-12T06:21:47.666Z,100718.34
2018-08-12T06:31:51.159Z,100707.42
2018-08-12T06:41:54.697Z,100694.22
2018-08-12T06:51:57.826Z,100689.33
2018-08-12T07:02:00.882Z,100679.48
2018-08-12T07:12:04.954Z,100676.77
2018-08-12T07:22:08.001Z,100668.03
2018-08-12T07:32:11.204Z,100657.16
2018-08-12T07:42:17.186Z,100648.71
2018-08-12T07:52:20.555Z,100642.11
2018-08-12T08:02:23.840Z,100632.46
2018-08-12T08:12:27.070Z,100632.11
2018-08-12T08:22:30.109Z,100606.34
2018-08-12T08:32:33.225Z,100603.09
2018-08-12T08:42:36.481Z,100599.74
2018-08-12T08:52:39.903Z,100586.73
2018-08-12T09:02:44.475Z,100579.70
2018-08-12T09:12:47.585Z,100574.98
2018-08-12T09:33:08.045Z,100554.97
2018-08-12T09:43:11.218Z,100546.55
2018-08-12T09:53:14.338Z,100541.64
2018-08-12T10:03:18.310Z,100522.80
2018-08-12T10:13:21.413Z,100505.51
2018-08-12T10:23:24.425Z,100493.69
2018-08-12T10:33:27.490Z,100479.52
2018-08-12T10:43:30.493Z,100470.84
2018-08-12T10:53:33.485Z,100460.30
2018-08-12T11:03:36.492Z,100449.33
2018-08-12T11:13:39.452Z,100436.61
2018-08-12T11:23:42.594Z,100421.19
2018-08-12T11:33:45.777Z,100413.87
2018-08-12T11:43:48.939Z,100405.95
2018-08-12T11:53:52.029Z,100396.52
2018-08-12T12:03:55.148Z,100382.24
2018-08-12T12:13:58.303Z,100379.44
2018-08-12T12:24:01.493Z,100346.43
2018-08-12T12:34:04.594Z,100342.08
2018-08-12T12:44:07.921Z,100328.44
2018-08-12T12:54:11.055Z,100322.77
2018-08-12T13:04:14.196Z,100297.95
2018-08-12T13:14:17.345Z,100285.41
2018-08-12T13:24:20.561Z,100270.91
2018-08-12T13:34:23.614Z,100259.66
2018-08-12T13:44:26.758Z,100239.84
2018-08-12T13:54:29.906Z,100218.44
2018-08-12T14:04:33.014Z,100215.48
2018-08-12T14:14:36.159Z,100194.88
2018-08-12T14:24:39.146Z,100174.44
2018-08-12T14:34:42.254Z,100155.32
2018-08-12T14:44:45.825Z,100142.08
2018-08-12T14:54:48.826Z,100126.00
2018-08-12T15:04:51.925Z,100114.03
2018-08-12T15:14:55.085Z,100098.48
2018-08-12T15:24:58.202Z,100085.27
2018-08-12T15:35:01.286Z,100072.45
2018-08-12T15:45:06.588Z,100072.92
2018-08-12T15:55:09.987Z,100058.17
2018-08-12T16:05:13.097Z,100047.61
2018-08-12T16:15:16.321Z,100037.31
2018-08-12T16:25:20.846Z,100020.63
2018-08-12T16:35:24.094Z,100015.86
2018-08-12T16:45:27.147Z,99993.73
2018-08-12T16:55:30.449Z,99986.06
2018-08-12T17:05:33.484Z,99974.02
2018-08-12T17:15:36.603Z,99959.77
2018-08-12T17:25:39.925Z,99956.00
2018-08-12T17:35:42.902Z,99950.98
2018-08-12T17:45:46.153Z,99942.33
2018-08-12T17:55:49.206Z,99936.67
2018-08-12T18:05:52.455Z,99935.41
2018-08-12T18:15:56.090Z,99930.47
2018-08-12T18:25:59.993Z,99932.06
2018-08-12T18:36:03.216Z,99925.09
2018-08-12T18:46:06.398Z,99931.97
2018-08-12T18:56:09.502Z,99930.49
2018-08-12T19:06:13.850Z,99930.39
2018-08-12T19:16:17.870Z,99921.91
2018-08-12T19:26:21.017Z,99916.27
2018-08-12T19:36:24.435Z,99919.30
2018-08-12T19:46:27.977Z,99911.70
2018-08-12T19:56:31.021Z,99916.05
2018-08-12T20:06:34.293Z,99916.73
2018-08-12T20:27:29.308Z,99914.55
2018-08-12T20:37:32.939Z,99919.59
2018-08-12T20:47:37.158Z,99922.63
2018-08-12T20:57:41.752Z,99920.01
2018-08-12T21:07:44.796Z,99923.45
2018-08-12T21:17:47.866Z,99913.19
2018-08-12T21:27:51.033Z,99900.25
2018-08-12T21:37:54.324Z,99905.73
2018-08-12T21:47:57.859Z,99889.56
2018-08-12T21:58:00.866Z,99886.52
2018-08-12T22:08:07.944Z,99887.86
2018-08-12T22:18:11.413Z,99880.36
2018-08-12T22:28:14.639Z,99876.20
2018-08-12T22:38:17.712Z,99867.62
2018-08-12T22:48:21.946Z,99856.50
2018-08-12T22:58:25.061Z,99843.63
2018-08-12T23:08:28.457Z,99842.14
2018-08-12T23:18:31.541Z,99841.47
2018-08-12T23:28:34.722Z,99839.95
2018-08-12T23:38:38.056Z,99830.78
2018-08-12T23:48:41.281Z,99828.26
2018-08-12T23:58:44.302Z,99813.05
